createdAt,value
2022-09-24T00:01:39.104Z,3.58
2022-09-24T00:04:08.796Z,3.38
2022-09-24T00:06:46.294Z,3.63
2022-09-24T00:09:16.013Z,3.85
2022-09-24T00:11:45.570Z,3.92
2022-09-24T00:14:13.611Z,4.07
2022-09-24T00:16:42.757Z,8.40
2022-09-24T00:19:11.568Z,3.83
2022-09-24T00:21:40.088Z,3.90
2022-09-24T00:24:09.974Z,4.18
2022-09-24T00:26:49.605Z,3.75
2022-09-24T00:29:20.463Z,3.85
2022-09-24T00:31:49.299Z,4.40
2022-09-24T00:34:17.759Z,3.65
2022-09-24T00:36:46.490Z,4.90
2022-09-24T00:39:14.388Z,3.90
2022-09-24T00:41:46.951Z,3.97
2022-09-24T00:44:45.364Z,3.75
2022-09-24T00:47:12.902Z,4.13
2022-09-24T00:49:40.841Z,4.18
2022-09-24T00:52:08.717Z,4.22
2022-09-24T00:54:37.505Z,4.10
2022-09-24T00:57:04.864Z,3.97
2022-09-24T00:59:33.452Z,3.80
2022-09-24T01:02:03.562Z,3.60
2022-09-24T01:04:31.941Z,4.25
2022-09-24T01:06:59.298Z,3.53
2022-09-24T01:09:27.832Z,3.70
2022-09-24T01:12:33.688Z,4.18
2022-09-24T01:15:09.682Z,3.83
2022-09-24T01:17:50.296Z,4.10
2022-09-24T01:20:35.791Z,4.13
2022-09-24T01:23:34.128Z,3.72
2022-09-24T01:26:07.428Z,4.20
2022-09-24T01:29:08.280Z,3.75
2022-09-24T01:31:37.539Z,3.80
2022-09-24T01:34:06.301Z,4.00
2022-09-24T01:36:36.318Z,4.32
2022-09-24T01:39:04.732Z,4.22
2022-09-24T01:41:34.343Z,4.28
2022-09-24T01:44:05.171Z,3.97
2022-09-24T01:46:32.984Z,3.65
2022-09-24T01:49:00.352Z,3.75
2022-09-24T01:51:39.623Z,4.07
2022-09-24T01:54:27.248Z,4.18
2022-09-24T01:57:01.509Z,3.70
2022-09-24T01:59:50.024Z,4.28
2022-09-24T02:02:48.381Z,4.25
2022-09-24T02:05:30.732Z,3.78
2022-09-24T02:08:22.348Z,4.13
2022-09-24T02:11:11.411Z,4.38
2022-09-24T02:14:02.463Z,4.63
2022-09-24T02:16:45.518Z,4.20
2022-09-24T02:19:17.059Z,4.10
2022-09-24T02:21:46.659Z,4.28
2022-09-24T02:24:19.597Z,4.97
2022-09-24T02:26:47.466Z,5.18
2022-09-24T02:29:14.895Z,4.43
2022-09-24T02:31:48.082Z,4.15
2022-09-24T02:34:20.664Z,5.05
2022-09-24T02:36:59.211Z,4.05
2022-09-24T02:39:27.225Z,3.70
2022-09-24T02:41:54.889Z,4.30
2022-09-24T02:44:22.418Z,3.53
2022-09-24T02:46:50.944Z,3.88
2022-09-24T02:49:19.820Z,4.10
2022-09-24T02:51:47.188Z,3.75
2022-09-24T02:54:14.591Z,3.83
2022-09-24T02:56:41.873Z,3.88
2022-09-24T02:59:09.555Z,4.30
2022-09-24T03:01:37.057Z,4.00
2022-09-24T03:04:04.550Z,3.85
2022-09-24T03:06:31.970Z,3.95
2022-09-24T03:09:03.363Z,3.55
2022-09-24T03:11:33.237Z,3.75
2022-09-24T03:14:02.584Z,3.80
2022-09-24T03:16:30.245Z,4.03
2022-09-24T03:18:58.156Z,3.50
2022-09-24T03:21:25.505Z,3.47
2022-09-24T03:23:53.015Z,4.68
2022-09-24T03:26:20.729Z,4.05
2022-09-24T03:28:48.458Z,4.13
2022-09-24T03:31:15.848Z,4.40
2022-09-24T03:33:49.428Z,4.13
2022-09-24T03:36:17.816Z,3.65
2022-09-24T03:38:48.601Z,3.72
2022-09-24T03:41:16.933Z,3.65
2022-09-24T03:43:44.372Z,3.10
2022-09-24T03:46:12.724Z,3.58
2022-09-24T03:48:41.319Z,3.20
2022-09-24T03:51:18.736Z,3.40
2022-09-24T03:53:47.430Z,3.80
2022-09-24T03:56:15.187Z,3.40
2022-09-24T03:58:48.307Z,4.05
2022-09-24T04:01:20.762Z,4.22
2022-09-24T04:03:49.483Z,3.70
2022-09-24T04:06:20.748Z,3.63
2022-09-24T04:08:51.168Z,4.50
2022-09-24T04:11:18.701Z,3.33
2022-09-24T04:13:46.027Z,2.75
2022-09-24T04:16:15.285Z,3.47
2022-09-24T04:18:44.004Z,2.97
2022-09-24T04:21:12.447Z,3.13
2022-09-24T04:23:40.051Z,2.80
2022-09-24T04:26:07.305Z,3.15
2022-09-24T04:28:35.417Z,3.08
2022-09-24T04:31:02.805Z,3.60
2022-09-24T04:33:31.596Z,3.10
2022-09-24T04:35:59.142Z,4.22
2022-09-24T04:38:26.366Z,4.05
2022-09-24T04:40:54.232Z,3.50
2022-09-24T04:43:21.597Z,3.92
2022-09-24T04:45:49.203Z,4.00
2022-09-24T04:48:17.330Z,4.38
2022-09-24T04:50:46.382Z,3.83
2022-09-24T04:53:14.446Z,4.10
2022-09-24T04:55:42.183Z,3.67
2022-09-24T04:58:09.833Z,4.18
2022-09-24T05:00:37.752Z,3.88
2022-09-24T05:03:05.511Z,3.88
2022-09-24T05:05:34.233Z,7.22
2022-09-24T05:08:01.940Z,4.00
2022-09-24T05:10:34.600Z,4.38
2022-09-24T05:13:02.407Z,4.05
2022-09-24T05:15:30.412Z,3.53
2022-09-24T05:17:58.819Z,3.65
2022-09-24T05:20:26.368Z,3.38
2022-09-24T05:22:53.627Z,5.22
2022-09-24T05:25:22.050Z,4.28
2022-09-24T05:27:54.481Z,4.43
2022-09-24T05:30:24.846Z,4.63
2022-09-24T05:32:53.286Z,4.32
2022-09-24T05:35:22.890Z,4.82
2022-09-24T05:37:53.613Z,4.30
2022-09-24T05:40:40.349Z,4.57
2022-09-24T05:43:07.987Z,4.57
2022-09-24T05:45:35.409Z,4.47
2022-09-24T05:48:02.791Z,4.38
2022-09-24T05:50:31.038Z,5.00
2022-09-24T05:52:58.957Z,5.70
2022-09-24T05:55:31.393Z,5.50
2022-09-24T05:58:07.447Z,4.65
2022-09-24T06:00:36.250Z,4.68
2022-09-24T06:03:10.341Z,5.05
2022-09-24T06:05:37.747Z,5.30
2022-09-24T06:08:06.263Z,4.18
2022-09-24T06:10:33.624Z,3.97
2022-09-24T06:13:01.751Z,4.10
2022-09-24T06:15:29.866Z,3.90
2022-09-24T06:17:57.471Z,4.07
2022-09-24T06:20:24.781Z,6.30
2022-09-24T06:22:55.521Z,4.25
2022-09-24T06:25:25.016Z,4.05
2022-09-24T06:28:00.698Z,3.80
2022-09-24T06:30:33.242Z,3.75
2022-09-24T06:33:09.876Z,3.47
2022-09-24T06:35:44.576Z,3.38
2022-09-24T06:38:16.247Z,4.15
2022-09-24T06:40:48.498Z,4.20
2022-09-24T06:43:18.183Z,4.10
2022-09-24T06:45:45.972Z,4.00
2022-09-24T06:48:14.587Z,3.97
2022-09-24T06:50:44.172Z,3.97
2022-09-24T06:53:12.692Z,3.85
2022-09-24T06:55:40.762Z,6.30
2022-09-24T06:58:16.747Z,5.53
2022-09-24T07:00:53.581Z,13.98
2022-09-24T07:03:22.039Z,4.43
2022-09-24T07:05:52.230Z,4.32
2022-09-24T07:08:21.637Z,6.38
2022-09-24T07:10:49.502Z,4.30
2022-09-24T07:13:21.479Z,4.90
2022-09-24T07:15:50.261Z,3.63
2022-09-24T07:18:18.873Z,6.65
2022-09-24T07:20:54.963Z,3.35
2022-09-24T07:23:23.149Z,3.13
2022-09-24T07:25:51.217Z,3.05
2022-09-24T07:28:21.540Z,3.22
2022-09-24T07:31:00.138Z,3.00
2022-09-24T07:33:27.799Z,3.08
2022-09-24T07:35:55.367Z,2.58
2022-09-24T07:38:22.869Z,3.00
2022-09-24T07:40:50.391Z,3.13
2022-09-24T07:43:17.875Z,4.05
2022-09-24T07:45:46.475Z,2.80
2022-09-24T07:48:15.925Z,2.78
2022-09-24T07:50:43.388Z,2.67
2022-09-24T07:53:14.366Z,2.58
2022-09-24T07:55:43.799Z,2.95
2022-09-24T07:58:13.977Z,2.70
2022-09-24T08:00:43.125Z,3.65
2022-09-24T08:03:10.945Z,3.72
2022-09-24T08:05:46.234Z,3.60
2022-09-24T08:08:14.321Z,3.70
2022-09-24T08:10:43.629Z,3.20
2022-09-24T08:13:11.223Z,3.65
2022-09-24T08:15:40.465Z,3.40
2022-09-24T08:18:09.819Z,4.05
2022-09-24T08:20:38.812Z,3.97
2022-09-24T08:23:10.204Z,3.80
2022-09-24T08:25:37.568Z,4.57
2022-09-24T08:28:09.065Z,4.50
2022-09-24T08:30:39.693Z,4.05
2022-09-24T08:33:08.571Z,4.43
2022-09-24T08:35:36.590Z,4.85
2022-09-24T08:38:04.205Z,4.47
2022-09-24T08:40:35.989Z,4.53
2022-09-24T08:43:32.845Z,5.13
2022-09-24T08:46:21.509Z,4.95
2022-09-24T08:48:52.082Z,5.28
2022-09-24T08:51:21.345Z,6.10
2022-09-24T08:54:07.326Z,6.53
2022-09-24T08:56:37.789Z,5.95
2022-09-24T08:59:06.682Z,5.53
2022-09-24T09:01:46.187Z,5.93
2022-09-24T09:04:32.327Z,6.15
2022-09-24T09:07:26.314Z,5.85
2022-09-24T09:10:01.308Z,5.03
2022-09-24T09:12:39.044Z,16.45
2022-09-24T09:15:11.013Z,9.57
2022-09-24T09:17:47.723Z,6.72
2022-09-24T09:20:19.376Z,6.25
2022-09-24T09:22:49.668Z,5.68
2022-09-24T09:25:24.696Z,7.03
2022-09-24T09:28:17.495Z,5.70
2022-09-24T09:30:59.150Z,6.20
2022-09-24T09:33:35.810Z,5.50
2022-09-24T09:36:12.826Z,5.20
2022-09-24T09:38:46.043Z,5.85
2022-09-24T09:41:22.698Z,5.60
2022-09-24T09:43:50.580Z,6.72
2022-09-24T09:46:25.830Z,7.88
2022-09-24T09:49:05.829Z,8.95
2022-09-24T09:51:39.404Z,6.70
2022-09-24T09:54:07.096Z,6.50
2022-09-24T09:56:44.495Z,6.00
2022-09-24T09:59:11.674Z,5.88
2022-09-24T10:01:42.958Z,5.47
2022-09-24T10:04:42.708Z,5.57
2022-09-24T10:07:16.990Z,5.85
2022-09-24T10:09:46.748Z,5.50
2022-09-24T10:12:22.189Z,13.65
2022-09-24T10:15:01.952Z,15.85
2022-09-24T10:17:37.310Z,6.90
2022-09-24T10:20:15.153Z,6.55
2022-09-24T10:22:49.500Z,7.85
2022-09-24T10:25:19.982Z,5.45
2022-09-24T10:27:48.277Z,5.30
2022-09-24T10:30:35.296Z,6.47
2022-09-24T10:33:04.884Z,4.25
2022-09-24T10:35:35.939Z,4.43
2022-09-24T10:38:16.848Z,5.10
2022-09-24T10:40:44.373Z,5.07
2022-09-24T10:43:19.960Z,5.53
2022-09-24T10:46:09.136Z,2.17
2022-09-24T10:48:43.039Z,2.15
2022-09-24T10:51:29.654Z,1.75
2022-09-24T10:54:00.337Z,2.00
2022-09-24T10:56:34.097Z,1.45
2022-09-24T10:59:23.412Z,3.30
2022-09-24T11:02:13.809Z,2.67
2022-09-24T11:04:52.001Z,1.48
2022-09-24T11:07:40.348Z,1.48
2022-09-24T11:10:45.618Z,2.00
2022-09-24T11:13:19.784Z,1.75
2022-09-24T11:16:11.316Z,3.38
2022-09-24T11:19:01.811Z,3.20
2022-09-24T11:21:47.529Z,4.78
2022-09-24T11:24:39.695Z,3.65
2022-09-24T11:27:13.515Z,4.20
2022-09-24T11:29:44.203Z,4.30
2022-09-24T11:32:49.282Z,5.38
2022-09-24T11:35:37.451Z,5.35
2022-09-24T11:38:43.008Z,4.47
2022-09-24T11:41:25.763Z,4.03
2022-09-24T11:44:13.660Z,4.10
2022-09-24T11:46:56.661Z,3.95
2022-09-24T11:49:42.115Z,4.18
2022-09-24T11:52:22.305Z,9.18
2022-09-24T11:55:10.405Z,4.97
2022-09-24T11:57:42.352Z,4.70
2022-09-24T12:00:18.767Z,4.57
2022-09-24T12:03:09.816Z,4.65
2022-09-24T12:05:44.757Z,5.32
2022-09-24T12:27:56.752Z,2.50
2022-09-24T12:31:01.136Z,2.92
2022-09-24T12:33:41.963Z,2.10
2022-09-24T12:36:13.939Z,2.10
2022-09-24T12:38:48.375Z,1.95
2022-09-24T12:41:29.192Z,2.53
2022-09-24T12:44:03.862Z,3.55
2022-09-24T12:46:43.625Z,3.10
2022-09-24T12:49:22.804Z,2.88
2022-09-24T12:51:50.144Z,2.80
2022-09-24T12:54:30.793Z,2.80
2022-09-24T12:57:22.719Z,2.67
2022-09-24T13:00:33.973Z,4.03
2022-09-24T13:03:02.308Z,2.80
2022-09-24T13:05:35.508Z,2.65
2022-09-24T13:08:11.805Z,2.45
2022-09-24T13:10:39.451Z,2.42
2022-09-24T13:13:23.996Z,3.38
2022-09-24T13:16:06.444Z,4.13
2022-09-24T13:18:35.820Z,3.00
2022-09-24T13:21:08.315Z,3.30
2022-09-24T13:23:41.510Z,4.30
2022-09-24T13:26:10.782Z,4.72
2022-09-24T13:28:58.207Z,3.40
2022-09-24T13:31:50.949Z,3.28
2022-09-24T13:34:25.195Z,2.63
2022-09-24T13:37:17.510Z,2.42
2022-09-24T13:39:53.451Z,2.28
2022-09-24T13:42:52.986Z,2.40
2022-09-24T13:45:22.726Z,2.45
2022-09-24T13:47:54.619Z,2.75
2022-09-24T13:50:35.921Z,2.88
2022-09-24T13:53:07.665Z,4.97
2022-09-24T13:55:49.272Z,3.60
2022-09-24T13:58:33.363Z,3.25
2022-09-24T14:01:05.451Z,3.28
2022-09-24T14:03:37.086Z,2.70
2022-09-24T14:06:12.890Z,2.72
2022-09-24T14:08:42.254Z,3.00
2022-09-24T14:11:21.543Z,2.65
2022-09-24T14:13:48.986Z,3.00
2022-09-24T14:16:24.980Z,3.00
2022-09-24T14:19:03.922Z,3.10
2022-09-24T14:21:46.330Z,3.63
2022-09-24T14:24:21.731Z,6.05
2022-09-24T14:26:57.240Z,4.78
2022-09-24T14:29:28.765Z,2.90
2022-09-24T14:32:01.940Z,3.22
2022-09-24T14:34:38.443Z,3.72
2022-09-24T14:37:21.066Z,2.88
2022-09-24T14:39:51.843Z,3.13
2022-09-24T14:42:27.358Z,2.90
2022-09-24T14:44:55.673Z,2.92
2022-09-24T14:47:25.921Z,3.05
2022-09-24T14:49:53.855Z,2.72
2022-09-24T14:52:31.001Z,2.78
2022-09-24T14:55:19.516Z,3.88
2022-09-24T14:57:51.765Z,3.30
2022-09-24T15:00:24.163Z,3.03
2022-09-24T15:03:05.223Z,3.08
2022-09-24T15:05:33.084Z,3.60
2022-09-24T15:08:22.468Z,3.05
2022-09-24T15:11:02.965Z,3.63
2022-09-24T15:13:37.693Z,3.33
2022-09-24T15:16:30.617Z,3.10
2022-09-24T15:19:30.806Z,2.63
2022-09-24T15:22:00.505Z,3.05
2022-09-24T15:24:28.492Z,9.90
2022-09-24T15:27:03.053Z,5.82
2022-09-24T15:29:31.803Z,3.47
2022-09-24T15:32:02.109Z,3.55
2022-09-24T15:34:29.945Z,2.88
2022-09-24T15:37:01.036Z,2.50
2022-09-24T15:39:28.838Z,2.80
2022-09-24T15:41:57.167Z,2.42
2022-09-24T15:44:31.213Z,3.05
2022-09-24T15:47:00.501Z,2.75
2022-09-24T15:49:27.769Z,3.13
2022-09-24T15:52:02.254Z,2.95
2022-09-24T15:54:29.823Z,3.25
2022-09-24T15:56:57.048Z,3.00
2022-09-24T15:59:24.528Z,2.72
2022-09-24T16:02:28.434Z,2.80
2022-09-24T16:04:57.356Z,2.63
2022-09-24T16:07:27.617Z,2.67
2022-09-24T16:09:56.798Z,2.95
2022-09-24T16:12:28.151Z,3.28
2022-09-24T16:15:01.071Z,3.35
2022-09-24T16:17:29.772Z,3.47
2022-09-24T16:19:58.856Z,4.00
2022-09-24T16:22:27.103Z,4.72
2022-09-24T16:24:55.190Z,5.80
2022-09-24T16:27:23.214Z,5.65
2022-09-24T16:29:53.288Z,7.68
2022-09-24T16:32:21.340Z,7.38
2022-09-24T16:34:49.178Z,6.03
2022-09-24T16:37:18.530Z,6.88
2022-09-24T16:39:47.657Z,6.45
2022-09-24T16:42:15.175Z,7.80
2022-09-24T16:44:42.716Z,11.15
2022-09-24T16:47:59.942Z,7.13
2022-09-24T16:50:27.716Z,6.93
2022-09-24T16:52:55.477Z,7.88
2022-09-24T16:55:32.547Z,6.95
2022-09-24T16:58:43.912Z,6.45
2022-09-24T17:04:01.210Z,6.35
2022-09-24T17:06:31.640Z,6.75
2022-09-24T17:09:43.468Z,5.90
2022-09-24T17:12:12.670Z,5.82
2022-09-24T17:16:02.199Z,5.75
2022-09-24T17:18:34.823Z,5.93
2022-09-24T17:25:05.909Z,7.75
2022-09-24T17:31:41.163Z,6.68
2022-09-24T17:38:10.200Z,6.28
2022-09-24T17:40:39.884Z,6.45
2022-09-24T17:43:07.152Z,6.55
2022-09-24T17:45:35.116Z,5.90
2022-09-24T17:48:08.450Z,5.55
2022-09-24T17:50:37.164Z,6.25
2022-09-24T17:53:04.679Z,6.50
2022-09-24T17:55:44.531Z,6.15
2022-09-24T17:58:13.567Z,5.40
2022-09-24T18:00:43.558Z,4.63
2022-09-24T18:03:24.623Z,6.03
2022-09-24T18:06:02.332Z,5.55
2022-09-24T18:08:32.638Z,5.72
2022-09-24T18:11:03.441Z,5.20
2022-09-24T18:13:56.093Z,5.60
2022-09-24T18:16:29.300Z,4.50
2022-09-24T18:19:03.433Z,4.97
2022-09-24T18:21:31.520Z,4.20
2022-09-24T18:24:02.851Z,4.70
2022-09-24T18:26:39.279Z,4.10
2022-09-24T18:29:13.032Z,4.63
2022-09-24T18:31:41.399Z,4.57
2022-09-24T18:34:13.526Z,4.45
2022-09-24T18:38:10.452Z,5.65
2022-09-24T18:40:44.010Z,4.65
2022-09-24T18:44:04.875Z,4.90
2022-09-24T18:46:47.654Z,8.73
2022-09-24T18:49:19.445Z,5.97
2022-09-24T18:51:52.093Z,6.57
2022-09-24T18:54:21.422Z,5.60
2022-09-24T18:56:55.464Z,5.15
2022-09-24T18:59:23.888Z,4.15
2022-09-24T19:02:05.134Z,4.30
2022-09-24T19:04:37.495Z,4.30
2022-09-24T19:07:05.649Z,4.50
2022-09-24T19:09:32.914Z,4.57
2022-09-24T19:12:00.281Z,4.75
2022-09-24T19:14:27.738Z,4.75
2022-09-24T19:16:57.142Z,5.97
2022-09-24T19:19:26.899Z,8.27
2022-09-24T19:21:54.293Z,7.35
2022-09-24T19:24:21.967Z,4.95
2022-09-24T19:26:50.008Z,4.82
2022-09-24T19:29:17.233Z,5.00
2022-09-24T19:31:48.920Z,4.60
2022-09-24T19:34:17.139Z,4.68
2022-09-24T19:36:45.637Z,4.50
2022-09-24T19:39:17.063Z,4.00
2022-09-24T19:41:45.129Z,3.80
2022-09-24T19:44:13.006Z,3.20
2022-09-24T19:46:40.976Z,3.50
2022-09-24T19:49:08.980Z,3.40
2022-09-24T19:51:37.209Z,3.58
2022-09-24T19:54:07.084Z,8.35
2022-09-24T19:56:36.024Z,4.38
2022-09-24T19:59:04.579Z,4.78
2022-09-24T20:01:32.894Z,3.90
2022-09-24T20:04:03.698Z,3.80
2022-09-24T20:06:33.786Z,3.60
2022-09-24T20:09:02.419Z,3.58
2022-09-24T20:11:33.026Z,3.58
2022-09-24T20:14:01.798Z,4.20
2022-09-24T20:16:33.972Z,3.00
2022-09-24T20:19:02.348Z,4.35
2022-09-24T20:21:34.746Z,3.30
2022-09-24T20:24:04.900Z,2.95
2022-09-24T20:26:56.227Z,3.15
2022-09-24T20:29:26.060Z,3.03
2022-09-24T20:31:55.505Z,2.88
2022-09-24T20:34:33.636Z,2.80
2022-09-24T20:37:05.661Z,2.55
2022-09-24T20:39:36.044Z,2.75
2022-09-24T20:42:06.211Z,2.35
2022-09-24T20:44:34.228Z,3.15
2022-09-24T20:47:01.731Z,9.30
2022-09-24T20:49:29.923Z,3.60
2022-09-24T20:51:58.091Z,11.13
2022-09-24T20:54:26.795Z,4.95
2022-09-24T20:56:54.258Z,3.30
2022-09-24T20:59:21.640Z,3.80
2022-09-24T21:01:49.497Z,2.85
2022-09-24T21:04:20.156Z,2.70
2022-09-24T21:06:48.765Z,3.05
2022-09-24T21:09:17.438Z,2.80
2022-09-24T21:11:45.145Z,2.50
2022-09-24T21:14:14.777Z,2.47
2022-09-24T21:16:42.403Z,2.30
2022-09-24T21:19:10.744Z,2.58
2022-09-24T21:21:39.387Z,2.47
2022-09-24T21:24:10.011Z,2.83
2022-09-24T21:26:39.148Z,2.60
2022-09-24T21:29:10.519Z,2.60
2022-09-24T21:31:39.229Z,3.08
2022-09-24T21:34:07.251Z,3.20
2022-09-24T21:36:45.052Z,2.90
2022-09-24T21:39:23.265Z,2.75
2022-09-24T21:41:51.442Z,2.75
2022-09-24T21:44:19.402Z,2.70
2022-09-24T21:46:52.791Z,3.10
2022-09-24T21:49:20.779Z,3.25
2022-09-24T21:51:48.289Z,4.53
2022-09-24T21:54:18.302Z,12.15
2022-09-24T21:56:47.084Z,5.88
2022-09-24T21:59:33.800Z,3.17
2022-09-24T22:02:03.170Z,3.25
2022-09-24T22:04:33.416Z,3.70
2022-09-24T22:07:01.400Z,3.03
2022-09-24T22:09:32.549Z,3.00
2022-09-24T22:12:00.916Z,2.95
2022-09-24T22:14:28.907Z,3.38
2022-09-24T22:16:56.710Z,2.92
2022-09-24T22:19:24.125Z,2.33
2022-09-24T22:21:52.451Z,2.92
2022-09-24T22:24:23.237Z,2.72
2022-09-24T22:26:50.552Z,3.10
2022-09-24T22:29:18.054Z,2.83
2022-09-24T22:31:45.409Z,2.72
2022-09-24T22:34:31.496Z,2.70
2022-09-24T22:36:58.838Z,2.92
2022-09-24T22:39:26.113Z,2.60
2022-09-24T22:41:54.183Z,2.67
2022-09-24T22:44:21.644Z,2.40
2022-09-24T22:46:51.403Z,6.97
2022-09-24T22:49:19.725Z,6.63
2022-09-24T22:51:47.256Z,5.60
2022-09-24T22:54:16.800Z,3.72
2022-09-24T22:56:44.220Z,3.30
2022-09-24T22:59:12.050Z,3.25
2022-09-24T23:01:42.646Z,3.10
2022-09-24T23:04:13.467Z,2.67
2022-09-24T23:06:44.070Z,3.00
2022-09-24T23:09:11.917Z,2.90
2022-09-24T23:11:39.944Z,2.90
2022-09-24T23:14:12.500Z,2.85
2022-09-24T23:16:40.516Z,2.80
2022-09-24T23:19:12.592Z,2.80
2022-09-24T23:21:40.105Z,2.80
2022-09-24T23:24:15.962Z,2.70
2022-09-24T23:26:44.091Z,2.80
2022-09-24T23:29:13.055Z,2.92
2022-09-24T23:31:40.456Z,2.72
2022-09-24T23:34:07.898Z,2.83
2022-09-24T23:36:36.366Z,2.90
2022-09-24T23:39:06.854Z,2.63
2022-09-24T23:41:34.149Z,2.67
2022-09-24T23:44:01.609Z,2.80
2022-09-24T23:46:29.415Z,2.58
2022-09-24T23:48:57.327Z,2.55
2022-09-24T23:51:25.036Z,2.85
2022-09-24T23:53:52.951Z,2.90
2022-09-24T23:56:20.739Z,2.70
2022-09-24T23:58:49.240Z,2.70
